sensor_id;sensor_type;location;lat;lon;timestamp;pressure;altitude;pressure_sealevel;temperature;humidity
17764;BME280;22245;52.832;13.816;2023-02-01T00:01:44;100786.00;;;4.53;76.09
17764;BME280;22245;52.832;13.816;2023-02-01T00:05:06;100776.13;;;4.57;75.83
17764;BME280;22245;52.832;13.816;2023-02-01T00:08:28;100772.72;;;4.55;76.35
17764;BME280;22245;52.832;13.816;2023-02-01T00:11:50;100778.00;;;4.55;76.54
17764;BME280;22245;52.832;13.816;2023-02-01T00:15:14;100774.56;;;4.53;75.63
17764;BME280;22245;52.832;13.816;2023-02-01T00:18:36;100772.88;;;4.52;76.60
17764;BME280;22245;52.832;13.816;2023-02-01T00:21:57;100767.53;;;4.53;75.93
17764;BME280;22245;52.832;13.816;2023-02-01T00:25:19;100776.47;;;4.51;76.20
17764;BME280;22245;52.832;13.816;2023-02-01T00:28:41;100780.03;;;4.49;76.08
17764;BME280;22245;52.832;13.816;2023-02-01T00:32:05;100780.22;;;4.46;76.06
17764;BME280;22245;52.832;13.816;2023-02-01T00:35:26;100785.50;;;4.46;76.37
17764;BME280;22245;52.832;13.816;2023-02-01T00:38:48;100780.22;;;4.46;76.65
17764;BME280;22245;52.832;13.816;2023-02-01T00:42:10;100780.41;;;4.43;76.90
17764;BME280;22245;52.832;13.816;2023-02-01T00:45:32;100773.25;;;4.45;77.03
17764;BME280;22245;52.832;13.816;2023-02-01T00:48:56;100778.72;;;4.42;76.88
17764;BME280;22245;52.832;13.816;2023-02-01T00:52:18;100776.00;;;4.44;77.43
17764;BME280;22245;52.832;13.816;2023-02-01T00:55:40;100766.38;;;4.43;77.11
17764;BME280;22245;52.832;13.816;2023-02-01T00:59:02;100771.56;;;4.44;77.02
17764;BME280;22245;52.832;13.816;2023-02-01T01:02:25;100760.16;;;4.44;77.09
17764;BME280;22245;52.832;13.816;2023-02-01T01:05:48;100774.38;;;4.41;76.81
17764;BME280;22245;52.832;13.816;2023-02-01T01:09:10;100765.44;;;4.44;76.61
17764;BME280;22245;52.832;13.816;2023-02-01T01:12:31;100757.72;;;4.41;76.58
17764;BME280;22245;52.832;13.816;2023-02-01T01:15:53;100764.59;;;4.43;76.47
17764;BME280;22245;52.832;13.816;2023-02-01T01:19:15;100759.13;;;4.46;76.13
17764;BME280;22245;52.832;13.816;2023-02-01T01:22:38;100764.41;;;4.46;76.26
17764;BME280;22245;52.832;13.816;2023-02-01T01:26:00;100769.84;;;4.43;76.40
17764;BME280;22245;52.832;13.816;2023-02-01T01:29:22;100761.00;;;4.44;76.87
17764;BME280;22245;52.832;13.816;2023-02-01T01:32:44;100750.00;;;4.38;76.84
17764;BME280;22245;52.832;13.816;2023-02-01T01:36:06;100746.50;;;4.37;77.01
17764;BME280;22245;52.832;13.816;2023-02-01T01:39:31;100751.50;;;4.42;77.23
17764;BME280;22245;52.832;13.816;2023-02-01T01:42:55;100756.41;;;4.48;77.30
17764;BME280;22245;52.832;13.816;2023-02-01T01:46:18;100757.44;;;4.45;76.40
17764;BME280;22245;52.832;13.816;2023-02-01T01:49:40;100746.88;;;4.45;77.17
17764;BME280;22245;52.832;13.816;2023-02-01T01:53:04;100742.53;;;4.44;76.73
17764;BME280;22245;52.832;13.816;2023-02-01T01:56:29;100742.34;;;4.47;76.83
17764;BME280;22245;52.832;13.816;2023-02-01T01:59:55;100754.78;;;4.45;77.43
17764;BME280;22245;52.832;13.816;2023-02-01T02:03:22;100752.34;;;4.42;77.21
17764;BME280;22245;52.832;13.816;2023-02-01T02:06:48;100755.84;;;4.43;77.82
17764;BME280;22245;52.832;13.816;2023-02-01T02:10:13;100751.41;;;4.43;77.79
17764;BME280;22245;52.832;13.816;2023-02-01T02:13:38;100757.53;;;4.44;78.04
17764;BME280;22245;52.832;13.816;2023-02-01T02:17:18;100764.75;;;4.40;78.36
17764;BME280;22245;52.832;13.816;2023-02-01T02:21:10;100754.22;;;4.40;78.51
17764;BME280;22245;52.832;13.816;2023-02-01T02:28:49;100742.84;;;4.40;78.38
17764;BME280;22245;52.832;13.816;2023-02-01T02:32:28;100738.50;;;4.39;77.86
17764;BME280;22245;52.832;13.816;2023-02-01T02:35:59;100729.16;;;4.33;78.36
17764;BME280;22245;52.832;13.816;2023-02-01T02:39:32;100735.38;;;4.32;78.04
17764;BME280;22245;52.832;13.816;2023-02-01T02:43:04;100729.16;;;4.33;78.03
17764;BME280;22245;52.832;13.816;2023-02-01T02:46:48;100723.13;;;4.31;77.77
17764;BME280;22245;52.832;13.816;2023-02-01T02:50:34;100726.34;;;4.36;77.43
17764;BME280;22245;52.832;13.816;2023-02-01T02:54:18;100725.41;;;4.37;77.78
17764;BME280;22245;52.832;13.816;2023-02-01T02:57:59;100722.00;;;4.35;77.30
17764;BME280;22245;52.832;13.816;2023-02-01T03:01:40;100718.59;;;4.33;77.13
17764;BME280;22245;52.832;13.816;2023-02-01T03:05:19;100724.63;;;4.35;76.93
17764;BME280;22245;52.832;13.816;2023-02-01T03:08:41;100714.09;;;4.35;76.73
17764;BME280;22245;52.832;13.816;2023-02-01T03:12:10;100704.56;;;4.32;76.29
17764;BME280;22245;52.832;13.816;2023-02-01T03:15:56;100701.84;;;4.34;76.35
17764;BME280;22245;52.832;13.816;2023-02-01T03:19:23;100702.88;;;4.31;76.79
17764;BME280;22245;52.832;13.816;2023-02-01T03:22:47;100703.06;;;4.28;76.78
17764;BME280;22245;52.832;13.816;2023-02-01T03:26:12;100688.94;;;4.29;76.62
17764;BME280;22245;52.832;13.816;2023-02-01T03:29:41;100685.09;;;4.35;76.53
17764;BME280;22245;52.832;13.816;2023-02-01T03:33:08;100686.72;;;4.38;76.06
17764;BME280;22245;52.832;13.816;2023-02-01T03:36:38;100678.88;;;4.36;76.15
17764;BME280;22245;52.832;13.816;2023-02-01T03:40:06;100671.72;;;4.38;76.39
17764;BME280;22245;52.832;13.816;2023-02-01T03:43:32;100680.50;;;4.39;76.04
17764;BME280;22245;52.832;13.816;2023-02-01T03:46:58;100660.22;;;4.39;76.25
17764;BME280;22245;52.832;13.816;2023-02-01T03:50:22;100664.56;;;4.40;75.42
17764;BME280;22245;52.832;13.816;2023-02-01T03:53:47;100666.06;;;4.44;75.91
17764;BME280;22245;52.832;13.816;2023-02-01T03:57:12;100654.13;;;4.39;76.38
17764;BME280;22245;52.832;13.816;2023-02-01T04:00:35;100652.31;;;4.39;76.31
17764;BME280;22245;52.832;13.816;2023-02-01T04:03:58;100655.91;;;4.38;76.19
17764;BME280;22245;52.832;13.816;2023-02-01T04:07:20;100652.31;;;4.39;76.05
17764;BME280;22245;52.832;13.816;2023-02-01T04:10:41;100638.19;;;4.40;75.79
17764;BME280;22245;52.832;13.816;2023-02-01T04:14:04;100645.63;;;4.33;76.37
17764;BME280;22245;52.832;13.816;2023-02-01T04:17:25;100645.47;;;4.37;75.73
17764;BME280;22245;52.832;13.816;2023-02-01T04:20:49;100647.16;;;4.38;76.02
17764;BME280;22245;52.832;13.816;2023-02-01T04:24:11;100655.34;;;4.33;76.33
17764;BME280;22245;52.832;13.816;2023-02-01T04:27:32;100640.44;;;4.32;76.02
17764;BME280;22245;52.832;13.816;2023-02-01T04:30:54;100647.22;;;4.36;76.37
17764;BME280;22245;52.832;13.816;2023-02-01T04:34:16;100648.19;;;4.35;76.30
17764;BME280;22245;52.832;13.816;2023-02-01T04:37:39;100653.63;;;4.32;76.47
17764;BME280;22245;52.832;13.816;2023-02-01T04:41:01;100649.00;;;4.35;76.13
17764;BME280;22245;52.832;13.816;2023-02-01T04:44:23;100642.81;;;4.37;75.93
17764;BME280;22245;52.832;13.816;2023-02-01T04:47:45;100642.03;;;4.34;76.13
17764;BME280;22245;52.832;13.816;2023-02-01T04:51:09;100646.09;;;4.40;76.08
17764;BME280;22245;52.832;13.816;2023-02-01T04:54:33;100636.31;;;4.42;75.52
17764;BME280;22245;52.832;13.816;2023-02-01T04:57:54;100640.63;;;4.43;76.22
17764;BME280;22245;52.832;13.816;2023-02-01T05:01:17;100635.47;;;4.42;76.35
17764;BME280;22245;52.832;13.816;2023-02-01T05:04:39;100635.28;;;4.45;75.90
17764;BME280;22245;52.832;13.816;2023-02-01T05:08:00;100633.41;;;4.47;76.02
17764;BME280;22245;52.832;13.816;2023-02-01T05:11:23;100640.19;;;4.51;76.35
17764;BME280;22245;52.832;13.816;2023-02-01T05:15:04;100634.78;;;4.53;75.70
17764;BME280;22245;52.832;13.816;2023-02-01T05:18:25;100621.59;;;4.53;76.10
17764;BME280;22245;52.832;13.816;2023-02-01T05:21:47;100626.72;;;4.56;75.63
17764;BME280;22245;52.832;13.816;2023-02-01T05:25:09;100614.16;;;4.59;75.99
17764;BME280;22245;52.832;13.816;2023-02-01T05:28:32;100638.09;;;4.56;76.09
17764;BME280;22245;52.832;13.816;2023-02-01T05:31:53;100627.34;;;4.59;75.27
17764;BME280;22245;52.832;13.816;2023-02-01T05:35:17;100620.09;;;4.63;75.55
17764;BME280;22245;52.832;13.816;2023-02-01T05:38:38;100611.81;;;4.69;75.36
17764;BME280;22245;52.832;13.816;2023-02-01T05:42:00;100634.59;;;4.70;75.72
17764;BME280;22245;52.832;13.816;2023-02-01T05:45:23;100599.25;;;4.73;75.51
17764;BME280;22245;52.832;13.816;2023-02-01T05:48:44;100616.03;;;4.72;76.01
17764;BME280;22245;52.832;13.816;2023-02-01T05:52:06;100612.44;;;4.73;76.22
17764;BME280;22245;52.832;13.816;2023-02-01T05:55:27;100615.00;;;4.74;75.84
17764;BME280;22245;52.832;13.816;2023-02-01T05:58:49;100616.03;;;4.72;76.72
17764;BME280;22245;52.832;13.816;2023-02-01T06:02:12;100620.34;;;4.73;76.49
17764;BME280;22245;52.832;13.816;2023-02-01T06:05:34;100602.56;;;4.76;76.97
17764;BME280;22245;52.832;13.816;2023-02-01T06:08:57;100593.50;;;4.81;77.01
17764;BME280;22245;52.832;13.816;2023-02-01T06:12:20;100592.34;;;4.85;77.16
17764;BME280;22245;52.832;13.816;2023-02-01T06:15:41;100593.97;;;4.87;77.79
17764;BME280;22245;52.832;13.816;2023-02-01T06:19:05;100585.75;;;4.92;77.19
17764;BME280;22245;52.832;13.816;2023-02-01T06:22:27;100591.59;;;4.97;76.72
17764;BME280;22245;52.832;13.816;2023-02-01T06:25:48;100588.28;;;4.93;76.75
17764;BME280;22245;52.832;13.816;2023-02-01T06:29:10;100584.81;;;4.93;77.43
17764;BME280;22245;52.832;13.816;2023-02-01T06:32:32;100590.19;;;4.91;77.70
17764;BME280;22245;52.832;13.816;2023-02-01T06:35:59;100586.50;;;4.94;77.73
17764;BME280;22245;52.832;13.816;2023-02-01T06:39:22;100607.44;;;4.97;78.71
17764;BME280;22245;52.832;13.816;2023-02-01T06:42:43;100597.63;;;4.85;79.99
17764;BME280;22245;52.832;13.816;2023-02-01T06:46:07;100588.97;;;4.83;80.45
17764;BME280;22245;52.832;13.816;2023-02-01T06:49:30;100587.47;;;4.78;81.14
17764;BME280;22245;52.832;13.816;2023-02-01T06:52:53;100586.25;;;4.70;82.12
17764;BME280;22245;52.832;13.816;2023-02-01T06:56:15;100578.47;;;4.68;82.36
17764;BME280;22245;52.832;13.816;2023-02-01T06:59:37;100592.78;;;4.64;82.33
17764;BME280;22245;52.832;13.816;2023-02-01T07:02:59;100584.97;;;4.62;82.64
17764;BME280;22245;52.832;13.816;2023-02-01T07:06:21;100585.72;;;4.64;82.74
17764;BME280;22245;52.832;13.816;2023-02-01T07:09:44;100579.69;;;4.62;82.96
17764;BME280;22245;52.832;13.816;2023-02-01T07:13:06;100594.56;;;4.63;83.25
17764;BME280;22245;52.832;13.816;2023-02-01T07:16:27;100594.94;;;4.57;83.43
17764;BME280;22245;52.832;13.816;2023-02-01T07:19:51;100593.38;;;4.55;83.77
17764;BME280;22245;52.832;13.816;2023-02-01T07:23:12;100582.03;;;4.53;83.76
17764;BME280;22245;52.832;13.816;2023-02-01T07:26:35;100588.09;;;4.55;83.84
17764;BME280;22245;52.832;13.816;2023-02-01T07:29:57;100577.44;;;4.56;84.00
17764;BME280;22245;52.832;13.816;2023-02-01T07:33:23;100572.06;;;4.58;84.54
17764;BME280;22245;52.832;13.816;2023-02-01T07:36:47;100572.91;;;4.58;84.43
17764;BME280;22245;52.832;13.816;2023-02-01T07:40:11;100578.00;;;4.61;84.55
17764;BME280;22245;52.832;13.816;2023-02-01T07:43:34;100577.78;;;4.64;84.57
17764;BME280;22245;52.832;13.816;2023-02-01T07:46:56;100570.75;;;4.65;84.66
17764;BME280;22245;52.832;13.816;2023-02-01T07:50:18;100569.25;;;4.61;84.11
17764;BME280;22245;52.832;13.816;2023-02-01T07:53:41;100570.19;;;4.60;84.61
17764;BME280;22245;52.832;13.816;2023-02-01T07:57:03;100571.13;;;4.59;84.89
17764;BME280;22245;52.832;13.816;2023-02-01T08:00:27;100552.47;;;4.62;84.71
17764;BME280;22245;52.832;13.816;2023-02-01T08:04:05;100549.63;;;4.65;84.62
17764;BME280;22245;52.832;13.816;2023-02-01T08:07:27;100553.78;;;4.69;84.65
17764;BME280;22245;52.832;13.816;2023-02-01T08:10:49;100543.03;;;4.72;84.71
17764;BME280;22245;52.832;13.816;2023-02-01T08:14:11;100547.44;;;4.72;84.68
17764;BME280;22245;52.832;13.816;2023-02-01T08:17:34;100527.28;;;4.71;84.72
17764;BME280;22245;52.832;13.816;2023-02-01T08:20:55;100534.34;;;4.70;84.78
17764;BME280;22245;52.832;13.816;2023-02-01T08:24:16;100546.59;;;4.71;85.00
17764;BME280;22245;52.832;13.816;2023-02-01T08:27:38;100550.94;;;4.72;85.02
17764;BME280;22245;52.832;13.816;2023-02-01T08:31:04;100558.31;;;4.67;84.75
17764;BME280;22245;52.832;13.816;2023-02-01T08:34:28;100556.88;;;4.61;85.40
17764;BME280;22245;52.832;13.816;2023-02-01T08:37:50;100563.09;;;4.60;85.95
17764;BME280;22245;52.832;13.816;2023-02-01T08:41:14;100557.00;;;4.60;85.69
17764;BME280;22245;52.832;13.816;2023-02-01T08:44:36;100552.19;;;4.52;85.50
17764;BME280;22245;52.832;13.816;2023-02-01T08:47:59;100547.59;;;4.56;86.06
17764;BME280;22245;52.832;13.816;2023-02-01T08:51:23;100555.38;;;4.57;85.85
17764;BME280;22245;52.832;13.816;2023-02-01T08:54:45;100542.47;;;4.53;85.39
17764;BME280;22245;52.832;13.816;2023-02-01T08:58:07;100561.25;;;4.48;85.44
17764;BME280;22245;52.832;13.816;2023-02-01T09:01:29;100562.28;;;4.45;85.64
17764;BME280;22245;52.832;13.816;2023-02-01T09:04:50;100574.91;;;4.40;85.36
17764;BME280;22245;52.832;13.816;2023-02-01T09:08:14;100560.97;;;4.38;85.79
17764;BME280;22245;52.832;13.816;2023-02-01T09:11:35;100573.41;;;4.36;85.96
17764;BME280;22245;52.832;13.816;2023-02-01T09:14:57;100576.44;;;4.30;85.25
17764;BME280;22245;52.832;13.816;2023-02-01T09:18:20;100589.03;;;4.25;85.46
17764;BME280;22245;52.832;13.816;2023-02-01T09:21:42;100582.06;;;4.24;84.71
17764;BME280;22245;52.832;13.816;2023-02-01T09:25:06;100586.69;;;4.20;84.90
17764;BME280;22245;52.832;13.816;2023-02-01T09:28:28;100589.44;;;4.18;85.59
17764;BME280;22245;52.832;13.816;2023-02-01T09:31:50;100601.81;;;4.16;84.75
17764;BME280;22245;52.832;13.816;2023-02-01T09:35:22;100604.94;;;4.09;84.94
17764;BME280;22245;52.832;13.816;2023-02-01T09:38:44;100613.69;;;4.09;85.11
17764;BME280;22245;52.832;13.816;2023-02-01T09:42:21;100623.84;;;4.01;84.88
17764;BME280;22245;52.832;13.816;2023-02-01T09:45:51;100616.69;;;4.03;84.07
17764;BME280;22245;52.832;13.816;2023-02-01T09:49:21;100618.69;;;3.99;84.48
17764;BME280;22245;52.832;13.816;2023-02-01T09:52:52;100624.97;;;3.97;84.50
17764;BME280;22245;52.832;13.816;2023-02-01T09:56:20;100631.53;;;3.89;84.32
17764;BME280;22245;52.832;13.816;2023-02-01T09:59:44;100618.38;;;3.89;84.34
17764;BME280;22245;52.832;13.816;2023-02-01T10:03:11;100620.91;;;3.91;84.52
17764;BME280;22245;52.832;13.816;2023-02-01T10:06:42;100626.09;;;3.93;84.66
17764;BME280;22245;52.832;13.816;2023-02-01T10:10:11;100620.91;;;3.91;84.66
17764;BME280;22245;52.832;13.816;2023-02-01T10:13:45;100621.38;;;3.98;84.70
17764;BME280;22245;52.832;13.816;2023-02-01T10:17:22;100618.69;;;3.99;85.03
17764;BME280;22245;52.832;13.816;2023-02-01T10:20:57;100624.59;;;4.03;84.59
17764;BME280;22245;52.832;13.816;2023-02-01T10:24:36;100627.97;;;4.05;84.92
17764;BME280;22245;52.832;13.816;2023-02-01T10:28:00;100632.41;;;4.04;85.21
17764;BME280;22245;52.832;13.816;2023-02-01T10:31:26;100621.69;;;4.08;84.81
17764;BME280;22245;52.832;13.816;2023-02-01T10:34:52;100618.69;;;4.14;84.91
17764;BME280;22245;52.832;13.816;2023-02-01T10:38:26;100615.19;;;4.13;85.12
17764;BME280;22245;52.832;13.816;2023-02-01T10:41:49;100622.75;;;4.19;84.89
17764;BME280;22245;52.832;13.816;2023-02-01T10:45:14;100618.03;;;4.25;84.61
17764;BME280;22245;52.832;13.816;2023-02-01T10:48:36;100619.94;;;4.23;85.21
17764;BME280;22245;52.832;13.816;2023-02-01T10:52:03;100616.91;;;4.29;84.68
17764;BME280;22245;52.832;13.816;2023-02-01T10:55:39;100626.31;;;4.33;85.29
17764;BME280;22245;52.832;13.816;2023-02-01T10:59:03;100612.00;;;4.37;84.23
17764;BME280;22245;52.832;13.816;2023-02-01T11:02:30;100609.19;;;4.40;84.02
17764;BME280;22245;52.832;13.816;2023-02-01T11:05:55;100606.84;;;4.50;83.78
17764;BME280;22245;52.832;13.816;2023-02-01T11:09:19;100601.75;;;4.47;84.79
17764;BME280;22245;52.832;13.816;2023-02-01T11:12:53;100604.75;;;4.55;84.05
17764;BME280;22245;52.832;13.816;2023-02-01T11:16:14;100602.59;;;4.62;83.66
17764;BME280;22245;52.832;13.816;2023-02-01T11:19:36;100593.81;;;4.61;83.61
17764;BME280;22245;52.832;13.816;2023-02-01T11:22:59;100595.31;;;4.66;84.18
17764;BME280;22245;52.832;13.816;2023-02-01T11:26:24;100586.38;;;4.68;83.98
17764;BME280;22245;52.832;13.816;2023-02-01T11:29:48;100588.53;;;4.76;83.93
17764;BME280;22245;52.832;13.816;2023-02-01T11:33:16;100583.41;;;4.87;83.28
17764;BME280;22245;52.832;13.816;2023-02-01T11:36:39;100575.28;;;4.90;83.35
17764;BME280;22245;52.832;13.816;2023-02-01T11:40:03;100572.25;;;4.97;82.64
17764;BME280;22245;52.832;13.816;2023-02-01T11:43:28;100571.44;;;4.96;82.40
17764;BME280;22245;52.832;13.816;2023-02-01T11:46:50;100559.81;;;4.99;81.48
17764;BME280;22245;52.832;13.816;2023-02-01T11:50:16;100559.72;;;5.00;81.12
17764;BME280;22245;52.832;13.816;2023-02-01T11:53:52;100564.78;;;5.03;81.64
17764;BME280;22245;52.832;13.816;2023-02-01T11:57:35;100555.53;;;5.11;81.60
17764;BME280;22245;52.832;13.816;2023-02-01T12:01:14;100550.16;;;5.12;81.07
17764;BME280;22245;52.832;13.816;2023-02-01T12:04:58;100541.38;;;5.12;81.45
17764;BME280;22245;52.832;13.816;2023-02-01T12:08:37;100549.84;;;5.17;81.92
17764;BME280;22245;52.832;13.816;2023-02-01T12:12:08;100550.59;;;5.19;81.77
17764;BME280;22245;52.832;13.816;2023-02-01T12:15:46;100540.22;;;5.16;82.12
17764;BME280;22245;52.832;13.816;2023-02-01T12:19:22;100535.16;;;5.13;83.30
17764;BME280;22245;52.832;13.816;2023-02-01T12:22:55;100541.66;;;5.07;83.28
17764;BME280;22245;52.832;13.816;2023-02-01T12:26:33;100574.56;;;5.16;83.64
17764;BME280;22245;52.832;13.816;2023-02-01T12:30:31;100563.84;;;5.04;84.14
17764;BME280;22245;52.832;13.816;2023-02-01T12:34:06;100573.53;;;4.76;83.80
17764;BME280;22245;52.832;13.816;2023-02-01T12:37:45;100591.41;;;4.44;83.93
17764;BME280;22245;52.832;13.816;2023-02-01T12:41:27;100572.28;;;4.40;85.22
17764;BME280;22245;52.832;13.816;2023-02-01T12:44:54;100566.91;;;4.42;85.96
17764;BME280;22245;52.832;13.816;2023-02-01T12:48:29;100550.03;;;4.44;86.28
17764;BME280;22245;52.832;13.816;2023-02-01T12:51:58;100529.28;;;4.53;87.05
17764;BME280;22245;52.832;13.816;2023-02-01T12:55:24;100509.59;;;4.58;87.15
17764;BME280;22245;52.832;13.816;2023-02-01T12:58:48;100535.69;;;4.63;87.22
17764;BME280;22245;52.832;13.816;2023-02-01T13:02:21;100526.53;;;4.69;87.42
17764;BME280;22245;52.832;13.816;2023-02-01T13:05:50;100521.16;;;4.70;87.22
17764;BME280;22245;52.832;13.816;2023-02-01T13:09:20;100515.50;;;4.76;86.71
17764;BME280;22245;52.832;13.816;2023-02-01T13:12:50;100507.56;;;4.76;85.93
17764;BME280;22245;52.832;13.816;2023-02-01T13:16:17;100531.59;;;4.72;85.08
17764;BME280;22245;52.832;13.816;2023-02-01T13:19:45;100531.72;;;4.70;83.75
17764;BME280;22245;52.832;13.816;2023-02-01T13:23:26;100516.84;;;4.69;83.39
17764;BME280;22245;52.832;13.816;2023-02-01T13:26:49;100528.34;;;4.68;83.23
17764;BME280;22245;52.832;13.816;2023-02-01T13:30:18;100510.63;;;4.70;83.67
17764;BME280;22245;52.832;13.816;2023-02-01T13:33:52;100511.56;;;4.69;82.78
17764;BME280;22245;52.832;13.816;2023-02-01T13:37:27;100499.13;;;4.71;83.22
17764;BME280;22245;52.832;13.816;2023-02-01T13:41:04;100476.31;;;4.70;82.42
17764;BME280;22245;52.832;13.816;2023-02-01T13:44:38;100476.31;;;4.70;82.25
17764;BME280;22245;52.832;13.816;2023-02-01T13:48:04;100480.66;;;4.71;81.88
17764;BME280;22245;52.832;13.816;2023-02-01T13:51:36;100476.31;;;4.70;82.63
17764;BME280;22245;52.832;13.816;2023-02-01T13:55:28;100466.91;;;4.66;83.26
17764;BME280;22245;52.832;13.816;2023-02-01T13:58:50;100468.59;;;4.67;84.05
17764;BME280;22245;52.832;13.816;2023-02-01T14:02:59;100467.47;;;4.71;84.42
17764;BME280;22245;52.832;13.816;2023-02-01T14:06:41;100455.00;;;4.73;84.38
17764;BME280;22245;52.832;13.816;2023-02-01T14:17:43;100454.41;;;4.83;84.84
17764;BME280;22245;52.832;13.816;2023-02-01T14:21:15;100444.59;;;4.85;84.93
17764;BME280;22245;52.832;13.816;2023-02-01T14:24:49;100435.44;;;4.90;84.83
17764;BME280;22245;52.832;13.816;2023-02-01T14:28:24;100427.41;;;4.92;84.64
17764;BME280;22245;52.832;13.816;2023-02-01T14:31:58;100421.94;;;4.95;84.75
17764;BME280;22245;52.832;13.816;2023-02-01T14:35:25;100414.03;;;4.95;84.53
17764;BME280;22245;52.832;13.816;2023-02-01T14:38:49;100407.59;;;4.99;84.53
17764;BME280;22245;52.832;13.816;2023-02-01T14:42:25;100392.38;;;5.03;84.18
17764;BME280;22245;52.832;13.816;2023-02-01T14:45:49;100384.97;;;5.08;84.34
17764;BME280;22245;52.832;13.816;2023-02-01T14:49:11;100407.59;;;5.12;83.90
17764;BME280;22245;52.832;13.816;2023-02-01T14:52:36;100422.16;;;5.18;84.35
17764;BME280;22245;52.832;13.816;2023-02-01T14:56:07;100424.06;;;5.16;84.02
17764;BME280;22245;52.832;13.816;2023-02-01T14:59:34;100412.78;;;5.14;84.11
17764;BME280;22245;52.832;13.816;2023-02-01T15:03:19;100394.41;;;5.12;84.42
17764;BME280;22245;52.832;13.816;2023-02-01T15:06:46;100415.41;;;5.14;84.54
17764;BME280;22245;52.832;13.816;2023-02-01T15:10:09;100426.19;;;5.11;84.15
17764;BME280;22245;52.832;13.816;2023-02-01T15:13:31;100405.66;;;4.88;82.64
17764;BME280;22245;52.832;13.816;2023-02-01T15:16:54;100416.19;;;4.75;82.50
17764;BME280;22245;52.832;13.816;2023-02-01T15:20:18;100399.59;;;4.73;82.84
17764;BME280;22245;52.832;13.816;2023-02-01T15:23:43;100399.31;;;4.78;82.99
17764;BME280;22245;52.832;13.816;2023-02-01T15:27:08;100393.38;;;4.74;83.42
17764;BME280;22245;52.832;13.816;2023-02-01T15:30:33;100393.09;;;4.79;83.99
17764;BME280;22245;52.832;13.816;2023-02-01T15:33:57;100379.69;;;4.82;85.08
17764;BME280;22245;52.832;13.816;2023-02-01T15:37:20;100382.94;;;4.86;85.29
17764;BME280;22245;52.832;13.816;2023-02-01T15:40:54;100380.75;;;4.92;85.84
17764;BME280;22245;52.832;13.816;2023-02-01T15:44:32;100391.97;;;4.96;86.48
17764;BME280;22245;52.832;13.816;2023-02-01T15:47:56;100399.22;;;4.92;86.77
17764;BME280;22245;52.832;13.816;2023-02-01T15:51:21;100394.03;;;4.91;85.92
17764;BME280;22245;52.832;13.816;2023-02-01T15:54:46;100384.75;;;4.85;85.47
17764;BME280;22245;52.832;13.816;2023-02-01T15:58:15;100378.84;;;4.82;85.08
17764;BME280;22245;52.832;13.816;2023-02-01T16:01:38;100371.34;;;4.75;85.66
17764;BME280;22245;52.832;13.816;2023-02-01T16:05:04;100370.69;;;4.72;86.15
17764;BME280;22245;52.832;13.816;2023-02-01T16:08:29;100370.59;;;4.73;86.90
17764;BME280;22245;52.832;13.816;2023-02-01T16:11:55;100366.91;;;4.76;86.91
17764;BME280;22245;52.832;13.816;2023-02-01T16:15:16;100374.91;;;4.74;87.16
17764;BME280;22245;52.832;13.816;2023-02-01T16:18:39;100381.06;;;4.75;87.25
17764;BME280;22245;52.832;13.816;2023-02-01T16:22:00;100375.94;;;4.72;87.10
17764;BME280;22245;52.832;13.816;2023-02-01T16:25:24;100382.19;;;4.71;87.24
17764;BME280;22245;52.832;13.816;2023-02-01T16:28:46;100381.16;;;4.73;87.10
17764;BME280;22245;52.832;13.816;2023-02-01T16:32:15;100394.25;;;4.75;86.55
17764;BME280;22245;52.832;13.816;2023-02-01T16:35:38;100382.84;;;4.74;86.75
17764;BME280;22245;52.832;13.816;2023-02-01T16:39:00;100384.94;;;4.69;86.57
17764;BME280;22245;52.832;13.816;2023-02-01T16:42:24;100406.03;;;4.69;86.11
17764;BME280;22245;52.832;13.816;2023-02-01T16:45:48;100395.78;;;4.64;86.21
17764;BME280;22245;52.832;13.816;2023-02-01T16:49:18;100402.94;;;4.62;85.73
17764;BME280;22245;52.832;13.816;2023-02-01T16:52:40;100401.00;;;4.52;86.03
17764;BME280;22245;52.832;13.816;2023-02-01T16:56:08;100416.66;;;4.55;85.77
17764;BME280;22245;52.832;13.816;2023-02-01T16:59:33;100422.84;;;4.54;85.60
17764;BME280;22245;52.832;13.816;2023-02-01T17:02:55;100411.03;;;4.46;85.45
17764;BME280;22245;52.832;13.816;2023-02-01T17:06:18;100424.41;;;4.43;85.83
17764;BME280;22245;52.832;13.816;2023-02-01T17:09:41;100422.16;;;4.37;86.44
17764;BME280;22245;52.832;13.816;2023-02-01T17:13:02;100435.28;;;4.39;85.92
17764;BME280;22245;52.832;13.816;2023-02-01T17:16:27;100442.31;;;4.38;86.08
17764;BME280;22245;52.832;13.816;2023-02-01T17:19:51;100455.91;;;4.32;85.30
17764;BME280;22245;52.832;13.816;2023-02-01T17:23:14;100451.75;;;4.28;86.02
17764;BME280;22245;52.832;13.816;2023-02-01T17:26:35;100463.34;;;4.25;84.98
17764;BME280;22245;52.832;13.816;2023-02-01T17:29:58;100472.31;;;4.23;85.53
17764;BME280;22245;52.832;13.816;2023-02-01T17:33:27;100489.16;;;4.20;84.90
17764;BME280;22245;52.832;13.816;2023-02-01T17:36:55;100476.25;;;4.15;85.16
17764;BME280;22245;52.832;13.816;2023-02-01T17:40:17;100485.22;;;4.13;84.80
17764;BME280;22245;52.832;13.816;2023-02-01T17:43:40;100492.44;;;4.09;83.98
17764;BME280;22245;52.832;13.816;2023-02-01T17:47:01;100497.53;;;3.98;83.23
17764;BME280;22245;52.832;13.816;2023-02-01T17:50:26;100498.88;;;3.90;83.70
17764;BME280;22245;52.832;13.816;2023-02-01T17:53:49;100491.63;;;3.80;84.51
17764;BME280;22245;52.832;13.816;2023-02-01T17:57:11;100506.94;;;3.73;84.86
17764;BME280;22245;52.832;13.816;2023-02-01T18:00:34;100498.84;;;3.61;85.76
17764;BME280;22245;52.832;13.816;2023-02-01T18:03:57;100499.50;;;3.65;85.33
17764;BME280;22245;52.832;13.816;2023-02-01T18:07:21;100501.59;;;3.60;87.03
17764;BME280;22245;52.832;13.816;2023-02-01T18:10:43;100495.06;;;3.66;87.19